Terminal Aerodrome Forecast
Issued by NWS

Home | Current Version | Previous Version | Text Only | Print | Product List | Glossary On
Versions: 1 2 3 4 5 6 7 8 9 10 11 12 13 14 15 16 17 18 19 20 21 22 23 24 25 26 27 28 29 30 31 32 33 34 35 36 37 38 39
000
FTUS41 KRNK 202320
TAFLWB
TAF
KLWB 202320Z 2100/2124 27003KT P6SM VCSH SCT050
     FM210200 00000KT P6SM BKN070
     FM210500 00000KT 6SM BR SCT003 OVC040
     FM210700 00000KT 3SM BR SCT002 OVC025
      TEMPO 2109/2112 1/4SM FG OVC002
     FM211500 26006KT P6SM -SHRA OVC040=

USA.gov is the U.S. government's official web portal to all federal, state and local government web resources and services.